Time;durP1;ratioP1;P1;durP2;ratioP2;P2;SDS_P1;SDS_P2;PMS_P1;PMS_P2;Temp;Humidity;BMP_temperature;BMP_pressure;BME280_temperature;BME280_humidity;BME280_pressure;Samples;Min_cycle;Max_cycle;Signal;HPM_P1;HPM_P2
2022/09/07 00:01:09;;;;;;;4.73;4.30;;;20.10;99.90;;;;;;4316898;28;10001003;-86
2022/09/07 00:03:35;;;;;;;4.45;4.15;;;20.10;99.90;;;;;;5013444;28;20025;-85
2022/09/07 00:06:06;;;;;;;4.30;4.00;;;20.10;99.90;;;;;;5014649;28;20022;-85
2022/09/07 00:08:32;;;;;;;4.53;4.22;;;20.10;99.90;;;;;;5014445;28;20529;-85
2022/09/07 00:11:00;;;;;;;5.13;4.72;;;20.00;99.90;;;;;;5012948;28;20040;-85
2022/09/07 00:13:29;;;;;;;4.50;4.10;;;20.00;99.90;;;;;;5008311;28;20091;-85
2022/09/07 00:15:55;;;;;;;4.47;4.03;;;19.90;99.90;;;;;;5015479;28;20402;-85
2022/09/07 00:18:21;;;;;;;4.70;4.30;;;19.90;99.90;;;;;;5020120;28;20092;-85
2022/09/07 00:20:46;;;;;;;4.50;4.10;;;19.90;99.90;;;;;;5018392;28;20025;-85
2022/09/07 00:23:12;;;;;;;5.05;4.60;;;19.90;99.90;;;;;;5016740;28;20034;-86
2022/09/07 00:25:39;;;;;;;4.47;4.18;;;19.80;99.90;;;;;;5010097;28;20036;-85
2022/09/07 00:28:06;;;;;;;4.90;4.50;;;19.80;99.90;;;;;;5012332;28;20037;-85
2022/09/07 00:30:33;;;;;;;4.65;4.20;;;19.70;99.90;;;;;;5018946;28;20032;-86
2022/09/07 00:32:59;;;;;;;4.40;4.00;;;19.70;99.90;;;;;;5012888;28;20032;-86
2022/09/07 00:35:25;;;;;;;5.05;4.65;;;19.70;99.90;;;;;;5013415;28;20021;-86
2022/09/07 00:37:51;;;;;;;5.18;4.78;;;19.70;99.90;;;;;;5011645;28;20073;-86
2022/09/07 00:40:16;;;;;;;4.57;4.28;;;19.70;99.90;;;;;;5006131;28;20456;-86
2022/09/07 00:42:42;;;;;;;5.00;4.50;;;19.70;99.90;;;;;;5008795;28;20037;-86
2022/09/07 00:45:15;;;;;;;4.97;4.57;;;19.70;99.90;;;;;;5007363;28;20440;-85
2022/09/07 00:47:52;;;;;;;5.07;4.60;;;19.60;99.90;;;;;;5006406;28;20025;-86
2022/09/07 00:50:24;;;;;;;5.35;4.82;;;19.60;99.90;;;;;;5009058;28;20417;-85
2022/09/07 00:52:55;;;;;;;5.35;4.93;;;19.60;99.90;;;;;;5012771;28;20077;-85
2022/09/07 00:55:21;;;;;;;5.05;4.65;;;19.60;99.90;;;;;;5008044;28;20028;-85
2022/09/07 00:57:51;;;;;;;5.72;5.10;;;19.60;99.90;;;;;;5013832;28;20113;-85
2022/09/07 01:00:17;;;;;;;4.97;4.50;;;19.60;99.90;;;;;;5014756;28;20069;-84
2022/09/07 01:02:45;;;;;;;4.93;4.47;;;19.60;99.90;;;;;;5006997;28;20045;-85
2022/09/07 01:05:20;;;;;;;5.07;4.68;;;19.60;99.90;;;;;;5015726;28;20021;-86
2022/09/07 01:07:46;;;;;;;4.78;4.38;;;19.60;99.90;;;;;;5020591;28;20232;-85
2022/09/07 01:10:13;;;;;;;5.18;4.72;;;19.60;99.90;;;;;;5011399;28;20028;-86
2022/09/07 01:12:38;;;;;;;4.85;4.43;;;19.50;99.90;;;;;;5012803;28;20041;-85
2022/09/07 01:15:05;;;;;;;4.60;4.30;;;19.60;99.90;;;;;;5009409;28;20013;-85
2022/09/07 01:18:03;;;;;;;4.97;4.57;;;19.60;99.90;;;;;;5012347;28;20123;-85
2022/09/07 01:20:44;;;;;;;6.82;4.88;;;19.60;99.90;;;;;;4960687;28;20038;-85
2022/09/07 01:23:24;;;;;;;6.97;4.90;;;19.60;99.90;;;;;;5008440;28;20025;-85
2022/09/07 01:26:27;;;;;;;5.00;4.60;;;19.70;99.90;;;;;;5014419;28;20029;-86
2022/09/07 01:29:02;;;;;;;5.28;4.78;;;19.70;99.90;;;;;;5012047;28;20611;-86
2022/09/07 01:31:56;;;;;;;5.30;4.80;;;19.70;99.90;;;;;;5014114;28;20037;-86
2022/09/07 01:34:24;;;;;;;5.88;5.30;;;19.70;99.90;;;;;;5014104;28;20040;-86
2022/09/07 01:37:10;;;;;;;6.50;4.97;;;19.70;99.90;;;;;;5013875;28;20036;-85
2022/09/07 01:39:54;;;;;;;5.88;5.38;;;19.60;99.90;;;;;;5012443;28;20022;-86
2022/09/07 01:42:27;;;;;;;5.32;4.93;;;19.60;99.90;;;;;;5010086;28;20573;-86
2022/09/07 01:44:57;;;;;;;5.70;5.20;;;19.60;99.90;;;;;;5009526;28;20033;-86
2022/09/07 01:47:44;;;;;;;5.25;4.80;;;19.60;99.90;;;;;;5017264;28;20037;-85
2022/09/07 01:50:29;;;;;;;5.68;5.18;;;19.50;99.90;;;;;;5014697;28;20030;-85
2022/09/07 01:53:05;;;;;;;5.55;4.95;;;19.50;99.90;;;;;;5011211;28;20115;-86
2022/09/07 01:55:38;;;;;;;6.03;5.30;;;19.50;99.90;;;;;;5011071;28;20026;-86
2022/09/07 01:58:06;;;;;;;4.82;4.43;;;19.50;99.90;;;;;;5017735;28;20037;-86
2022/09/07 02:00:33;;;;;;;5.75;5.18;;;19.50;99.90;;;;;;5009034;28;20122;-86
2022/09/07 02:03:03;;;;;;;5.50;5.00;;;19.40;99.90;;;;;;5009174;28;20157;-86
2022/09/07 02:06:01;;;;;;;5.45;5.05;;;19.40;99.90;;;;;;5009952;28;20029;-85
2022/09/07 02:08:36;;;;;;;4.95;4.55;;;19.40;99.90;;;;;;5017527;28;20892;-85
2022/09/07 02:11:12;;;;;;;5.65;5.15;;;19.40;99.90;;;;;;5015135;28;20071;-86
2022/09/07 02:13:52;;;;;;;5.35;4.95;;;19.40;99.90;;;;;;5009704;28;20592;-86
2022/09/07 02:16:29;;;;;;;5.82;5.22;;;19.30;99.90;;;;;;5010991;28;20029;-86
2022/09/07 02:19:00;;;;;;;5.70;5.20;;;19.40;99.90;;;;;;5004776;28;20022;-86
2022/09/07 02:21:32;;;;;;;5.43;4.93;;;19.30;99.90;;;;;;5007368;28;20034;-86
2022/09/07 02:24:05;;;;;;;6.35;5.75;;;19.30;99.90;;;;;;5014994;28;20373;-85
2022/09/07 02:26:33;;;;;;;5.43;4.97;;;19.30;99.90;;;;;;5012928;28;20030;-85
2022/09/07 02:28:59;;;;;;;5.50;5.00;;;19.30;99.90;;;;;;5013427;28;20056;-85
2022/09/07 02:31:24;;;;;;;5.50;5.10;;;19.30;99.90;;;;;;5011517;28;20501;-86
2022/09/07 02:33:50;;;;;;;5.70;5.20;;;19.30;99.90;;;;;;5015172;28;20686;-85
2022/09/07 02:36:20;;;;;;;6.38;5.72;;;19.20;99.90;;;;;;5020232;28;20034;-86
2022/09/07 02:38:45;;;;;;;8.38;6.18;;;19.30;99.90;;;;;;5014043;28;20030;-85
2022/09/07 02:41:34;;;;;;;9.30;7.53;;;19.30;99.90;;;;;;5015614;28;20021;-83
2022/09/07 02:44:03;;;;;;;11.30;7.82;;;19.30;99.90;;;;;;5018351;28;20222;-84
2022/09/07 02:46:49;;;;;;;7.63;6.80;;;19.20;99.90;;;;;;5017100;28;20040;-83
2022/09/07 02:49:44;;;;;;;7.65;5.45;;;19.20;99.90;;;;;;5014232;28;20116;-83
2022/09/07 02:52:39;;;;;;;7.95;5.80;;;19.20;99.90;;;;;;5014567;28;20463;-83
2022/09/07 02:55:31;;;;;;;8.02;5.40;;;19.20;99.90;;;;;;5012234;28;20553;-84
2022/09/07 02:58:33;;;;;;;5.65;4.85;;;19.20;99.90;;;;;;5013926;28;20045;-83
2022/09/07 03:01:16;;;;;;;4.13;3.70;;;19.20;99.90;;;;;;5005445;28;20030;-83
2022/09/07 03:04:00;;;;;;;4.07;3.10;;;19.20;99.90;;;;;;5017563;28;20060;-83
2022/09/07 03:06:33;;;;;;;5.18;3.72;;;19.30;99.90;;;;;;5016989;28;20670;-83
2022/09/07 03:09:04;;;;;;;5.97;4.22;;;19.40;99.90;;;;;;5018842;28;20516;-84
2022/09/07 03:11:29;;;;;;;6.25;4.93;;;19.40;99.90;;;;;;5011996;28;20710;-84
2022/09/07 03:14:32;;;;;;;4.00;3.58;;;19.40;99.90;;;;;;5017814;28;20037;-83
2022/09/07 03:16:59;;;;;;;5.45;3.33;;;19.40;99.90;;;;;;4942399;28;20035;-83
2022/09/07 03:19:25;;;;;;;5.82;3.40;;;19.40;99.90;;;;;;4996449;28;20361;-84
2022/09/07 03:21:51;;;;;;;5.05;2.78;;;19.30;99.90;;;;;;5007705;28;20038;-84
2022/09/07 03:24:17;;;;;;;4.90;2.40;;;19.30;99.90;;;;;;5020131;28;20029;-84
2022/09/07 03:26:45;;;;;;;6.88;2.45;;;19.30;99.90;;;;;;5014371;28;20021;-84
2022/09/07 03:29:11;;;;;;;4.22;2.10;;;19.30;99.90;;;;;;5011069;28;20025;-85
2022/09/07 03:31:37;;;;;;;8.55;2.50;;;19.30;99.90;;;;;;5017289;28;20018;-83
2022/09/07 03:34:02;;;;;;;4.07;2.30;;;19.40;99.90;;;;;;5013304;28;20080;-83
2022/09/07 03:36:29;;;;;;;6.75;2.45;;;19.30;99.90;;;;;;5014992;28;20029;-81
2022/09/07 03:38:55;;;;;;;4.38;2.13;;;19.30;99.90;;;;;;5012424;28;20026;-81
2022/09/07 03:41:20;;;;;;;3.95;1.98;;;19.30;99.90;;;;;;5010708;28;20098;-80
2022/09/07 03:43:47;;;;;;;4.57;2.22;;;19.30;99.90;;;;;;5015026;28;20444;-80
2022/09/07 03:46:16;;;;;;;4.60;2.30;;;19.30;99.90;;;;;;5013046;28;20029;-79
2022/09/07 03:48:42;;;;;;;6.85;2.53;;;19.20;99.90;;;;;;5016381;28;20120;-80
2022/09/07 03:51:10;;;;;;;3.67;2.22;;;19.10;99.90;;;;;;5022662;28;20640;-80
2022/09/07 03:53:40;;;;;;;5.70;2.25;;;19.00;99.90;;;;;;5018698;28;20026;-80
2022/09/07 03:56:17;;;;;;;5.10;2.97;;;19.00;99.90;;;;;;5015236;28;20034;-81
2022/09/07 03:58:44;;;;;;;5.90;2.60;;;18.90;99.90;;;;;;5015490;28;20049;-82
2022/09/07 04:01:14;;;;;;;4.40;2.58;;;18.90;99.90;;;;;;5007314;28;20029;-82
2022/09/07 04:03:39;;;;;;;8.50;3.45;;;18.90;99.90;;;;;;5010646;28;20061;-81
2022/09/07 04:06:05;;;;;;;9.05;3.88;;;18.80;99.90;;;;;;5008816;28;20045;-82
2022/09/07 04:08:32;;;;;;;9.88;4.13;;;18.80;99.90;;;;;;5020350;28;20030;-82
2022/09/07 04:11:00;;;;;;;9.93;4.10;;;18.80;99.90;;;;;;5012094;28;20667;-82
2022/09/07 04:13:27;;;;;;;10.02;4.57;;;18.70;99.90;;;;;;5018534;28;20100;-83
2022/09/07 04:15:53;;;;;;;9.63;5.70;;;18.70;99.90;;;;;;5024710;28;20034;-82
2022/09/07 04:18:19;;;;;;;9.05;5.50;;;18.70;99.90;;;;;;5011894;28;20084;-83
2022/09/07 04:20:45;;;;;;;6.95;5.72;;;18.60;99.90;;;;;;5007076;28;20072;-83
2022/09/07 04:23:12;;;;;;;8.15;6.13;;;18.60;99.90;;;;;;5011959;28;20037;-83
2022/09/07 04:25:37;;;;;;;7.30;5.60;;;18.60;99.90;;;;;;5006993;28;20034;-82
2022/09/07 04:28:03;;;;;;;6.40;5.72;;;18.60;99.90;;;;;;5018096;28;20029;-83
2022/09/07 04:30:29;;;;;;;7.25;5.68;;;18.60;99.90;;;;;;5014001;28;20116;-82
2022/09/07 04:32:54;;;;;;;8.13;5.45;;;18.60;99.90;;;;;;5013636;28;20121;-82
2022/09/07 04:35:21;;;;;;;7.13;5.38;;;18.60;99.90;;;;;;5015849;28;20057;-83
2022/09/07 04:37:46;;;;;;;10.35;6.03;;;18.60;99.90;;;;;;5017486;28;20037;-83
2022/09/07 04:40:12;;;;;;;9.85;5.55;;;18.50;99.90;;;;;;5016506;28;20058;-83
2022/09/07 04:42:37;;;;;;;8.40;5.82;;;18.60;99.90;;;;;;5015429;28;20122;-82
2022/09/07 04:45:04;;;;;;;7.72;5.65;;;18.60;99.90;;;;;;5009339;28;20960;-83
2022/09/07 04:47:30;;;;;;;10.07;5.80;;;18.60;99.90;;;;;;5011845;28;20056;-83
2022/09/07 04:49:56;;;;;;;9.50;5.50;;;18.50;99.90;;;;;;5018520;28;20026;-82
2022/09/07 04:52:22;;;;;;;10.57;5.47;;;18.50;99.90;;;;;;5012735;28;20030;-83
2022/09/07 04:54:49;;;;;;;9.73;4.95;;;18.50;99.90;;;;;;5009785;28;20022;-82
2022/09/07 04:57:17;;;;;;;8.32;5.47;;;18.50;99.90;;;;;;5009217;28;20045;-82
2022/09/07 04:59:42;;;;;;;6.03;4.57;;;18.50;99.90;;;;;;5009937;28;20056;-82
2022/09/07 05:02:08;;;;;;;11.15;5.47;;;18.50;99.90;;;;;;5007042;28;20026;-82
2022/09/07 05:04:34;;;;;;;5.35;4.75;;;18.40;99.90;;;;;;5011104;28;20466;-82
2022/09/07 05:07:00;;;;;;;9.13;5.40;;;18.40;99.90;;;;;;5015672;28;20029;-82
2022/09/07 05:09:26;;;;;;;8.32;5.30;;;18.40;99.90;;;;;;5009740;28;20482;-83
2022/09/07 05:11:51;;;;;;;5.45;4.80;;;18.50;99.90;;;;;;5013754;28;20113;-83
2022/09/07 05:14:17;;;;;;;6.63;4.43;;;18.40;99.90;;;;;;5013656;28;20018;-83
2022/09/07 05:16:43;;;;;;;6.10;4.45;;;18.40;99.90;;;;;;5012506;28;20025;-83
2022/09/07 05:19:12;;;;;;;5.25;4.47;;;18.40;99.90;;;;;;5011004;28;20038;-83
2022/09/07 05:21:37;;;;;;;4.57;4.07;;;18.30;99.90;;;;;;5015768;28;20113;-83
2022/09/07 05:24:05;;;;;;;8.07;4.30;;;18.30;99.90;;;;;;5007927;28;20133;-83
2022/09/07 05:26:33;;;;;;;8.73;4.85;;;18.20;99.90;;;;;;5018446;28;20030;-83
2022/09/07 05:29:01;;;;;;;8.32;5.55;;;18.10;99.90;;;;;;5009014;28;22528;-84
2022/09/07 05:31:27;;;;;;;7.20;5.10;;;18.00;99.90;;;;;;5009003;28;20056;-83
2022/09/07 05:33:56;;;;;;;9.32;5.20;;;17.90;99.90;;;;;;5004279;28;20045;-82
2022/09/07 05:36:24;;;;;;;4.60;4.18;;;17.80;99.90;;;;;;5016365;28;20062;-83
2022/09/07 05:38:50;;;;;;;8.68;4.88;;;17.80;99.90;;;;;;5011159;28;20954;-79
2022/09/07 05:41:18;;;;;;;9.57;4.50;;;17.70;99.90;;;;;;5011642;28;20076;-79
2022/09/07 05:43:44;;;;;;;6.43;4.35;;;17.70;99.90;;;;;;5002553;28;20048;-80
2022/09/07 05:46:11;;;;;;;6.45;4.38;;;17.70;99.90;;;;;;5011300;28;20021;-79
2022/09/07 05:48:37;;;;;;;4.57;3.67;;;17.70;99.90;;;;;;5012231;28;20038;-79
2022/09/07 05:51:04;;;;;;;4.43;3.53;;;17.70;99.90;;;;;;5013366;28;20432;-80
2022/09/07 05:53:30;;;;;;;7.28;3.70;;;17.70;99.90;;;;;;5005827;28;20376;-80
2022/09/07 05:55:59;;;;;;;3.45;2.90;;;17.80;99.90;;;;;;5017828;28;20013;-79
2022/09/07 05:58:26;;;;;;;7.82;3.20;;;17.90;99.90;;;;;;5024274;28;20050;-79
2022/09/07 06:00:56;;;;;;;6.35;3.05;;;17.90;99.90;;;;;;5015717;28;20048;-79
2022/09/07 06:03:23;;;;;;;5.18;3.05;;;18.00;99.90;;;;;;5015352;28;20879;-79
2022/09/07 06:06:05;;;;;;;4.22;3.38;;;18.10;99.90;;;;;;5013279;28;20084;-79
2022/09/07 06:08:32;;;;;;;6.43;2.90;;;18.20;99.90;;;;;;5010682;28;20117;-79
2022/09/07 06:11:03;;;;;;;4.93;3.47;;;18.20;99.90;;;;;;5016234;28;20040;-79
2022/09/07 06:13:29;;;;;;;10.52;4.22;;;18.30;99.90;;;;;;5009979;28;20496;-80
2022/09/07 06:15:59;;;;;;;7.47;3.75;;;18.40;99.90;;;;;;5014593;28;20143;-79
2022/09/07 06:18:31;;;;;;;6.55;4.07;;;18.40;99.90;;;;;;5013047;28;20041;-79
2022/09/07 06:21:13;;;;;;;3.88;3.28;;;18.40;99.90;;;;;;5015650;28;20717;-79
2022/09/07 06:23:40;;;;;;;9.20;4.22;;;18.50;99.90;;;;;;5017065;28;20028;-79
2022/09/07 06:26:06;;;;;;;7.93;3.97;;;18.50;99.90;;;;;;5019305;28;20051;-79
2022/09/07 06:28:40;;;;;;;4.47;3.85;;;18.60;99.90;;;;;;5015215;28;20477;-79
2022/09/07 06:31:12;;;;;;;4.90;3.65;;;18.60;99.90;;;;;;5011849;28;20032;-79
2022/09/07 06:33:38;;;;;;;6.55;3.13;;;18.70;99.90;;;;;;5020326;28;20036;-81
2022/09/07 06:36:06;;;;;;;5.28;3.38;;;18.80;99.90;;;;;;5018395;28;20036;-81
2022/09/07 06:38:35;;;;;;;5.82;2.95;;;18.80;99.90;;;;;;5013886;28;20967;-81
2022/09/07 06:41:10;;;;;;;4.80;3.00;;;18.90;99.90;;;;;;5016370;28;20495;-79
2022/09/07 06:43:36;;;;;;;4.20;3.28;;;18.90;99.90;;;;;;5009248;28;20413;-80
2022/09/07 06:46:02;;;;;;;3.88;2.67;;;19.00;99.90;;;;;;5016990;28;20038;-80
2022/09/07 06:48:28;;;;;;;4.00;3.03;;;19.10;99.90;;;;;;5014586;28;20035;-81
2022/09/07 06:51:00;;;;;;;4.75;2.90;;;19.10;99.90;;;;;;5014906;28;20076;-81
2022/09/07 06:53:26;;;;;;;8.38;3.35;;;19.20;99.90;;;;;;5013623;28;20598;-80
2022/09/07 06:55:52;;;;;;;3.63;3.30;;;19.20;99.90;;;;;;5015236;28;20651;-84
2022/09/07 06:58:18;;;;;;;9.45;3.50;;;19.40;99.90;;;;;;5024685;28;20025;-80
2022/09/07 07:00:43;;;;;;;6.55;3.53;;;19.40;99.90;;;;;;5024116;28;20030;-79
2022/09/07 07:03:09;;;;;;;4.53;3.47;;;19.50;99.90;;;;;;5019694;28;20029;-80
2022/09/07 07:05:35;;;;;;;5.68;3.65;;;19.60;99.90;;;;;;5011993;28;20489;-79
2022/09/07 07:08:00;;;;;;;6.13;3.65;;;19.70;99.90;;;;;;5009796;28;20062;-80
2022/09/07 07:10:26;;;;;;;9.50;3.50;;;19.80;99.90;;;;;;5009929;28;20041;-80
2022/09/07 07:12:55;;;;;;;5.38;3.30;;;19.80;99.90;;;;;;5019459;28;20548;-80
2022/09/07 07:15:22;;;;;;;4.78;3.53;;;19.80;99.90;;;;;;5021163;28;20080;-80
2022/09/07 07:17:47;;;;;;;5.18;3.67;;;19.90;99.90;;;;;;5018411;28;20032;-80
2022/09/07 07:20:13;;;;;;;3.80;3.40;;;20.00;99.90;;;;;;5010192;28;20030;-80
2022/09/07 07:22:38;;;;;;;5.97;3.35;;;20.00;99.90;;;;;;5019311;28;20061;-76
2022/09/07 07:25:05;;;;;;;4.20;2.83;;;20.10;99.90;;;;;;5011218;28;20029;-77
2022/09/07 07:27:30;;;;;;;5.38;3.40;;;20.20;99.90;;;;;;5016287;28;20033;-77
2022/09/07 07:29:56;;;;;;;4.45;2.97;;;20.20;99.90;;;;;;5016977;28;20026;-77
2022/09/07 07:32:22;;;;;;;6.68;3.13;;;20.30;99.90;;;;;;5019871;28;20036;-78
2022/09/07 07:34:48;;;;;;;5.35;3.42;;;20.30;99.90;;;;;;5022823;28;20026;-77
2022/09/07 07:37:14;;;;;;;3.83;2.80;;;20.40;99.90;;;;;;5015858;28;20758;-77
2022/09/07 07:39:41;;;;;;;4.85;2.90;;;20.50;99.90;;;;;;5016564;28;20037;-77
2022/09/07 07:42:07;;;;;;;5.55;2.88;;;20.50;99.90;;;;;;5013809;28;20026;-77
2022/09/07 07:44:33;;;;;;;3.13;2.80;;;20.60;99.90;;;;;;5015460;28;20116;-76
2022/09/07 07:46:59;;;;;;;4.53;2.92;;;20.70;99.90;;;;;;5017508;28;20033;-76
2022/09/07 07:49:25;;;;;;;4.70;2.85;;;20.70;99.90;;;;;;5011828;28;20639;-77
2022/09/07 07:51:53;;;;;;;7.88;3.13;;;20.80;99.90;;;;;;5020569;28;20060;-77
2022/09/07 07:54:19;;;;;;;8.30;3.13;;;21.00;99.90;;;;;;5018777;28;20034;-77
2022/09/07 07:56:44;;;;;;;5.00;2.60;;;21.10;99.90;;;;;;5014477;28;20281;-77
2022/09/07 07:59:10;;;;;;;7.05;3.33;;;21.20;99.90;;;;;;5023551;28;20101;-76
2022/09/07 08:01:36;;;;;;;5.20;3.00;;;21.30;99.90;;;;;;5016652;28;20041;-77
2022/09/07 08:04:02;;;;;;;7.35;2.80;;;21.50;99.90;;;;;;5015045;28;20116;-75
2022/09/07 08:06:27;;;;;;;8.52;2.90;;;21.60;99.90;;;;;;5013225;28;20025;-76
2022/09/07 08:08:54;;;;;;;7.07;3.17;;;21.80;99.90;;;;;;5022364;28;20033;-76
2022/09/07 08:11:21;;;;;;;9.82;2.88;;;21.90;99.90;;;;;;5008992;28;20075;-76
2022/09/07 08:13:48;;;;;;;17.20;3.78;;;22.00;99.90;;;;;;5024797;28;20034;-76
2022/09/07 08:16:16;;;;;;;5.55;3.13;;;22.20;99.90;;;;;;5017258;28;20155;-76
2022/09/07 08:18:42;;;;;;;5.80;2.58;;;22.20;99.90;;;;;;5012051;28;20593;-75
2022/09/07 08:21:11;;;;;;;10.05;3.13;;;22.30;99.90;;;;;;5012068;28;20034;-76
2022/09/07 08:23:38;;;;;;;5.97;2.92;;;22.40;99.90;;;;;;5022484;28;20393;-77
2022/09/07 08:26:04;;;;;;;5.60;2.53;;;22.50;99.90;;;;;;5017177;28;20033;-77
2022/09/07 08:28:32;;;;;;;5.80;2.85;;;22.60;99.90;;;;;;5022338;28;20033;-76
2022/09/07 08:30:58;;;;;;;4.70;2.80;;;22.80;99.90;;;;;;5012924;28;20018;-76
2022/09/07 08:33:24;;;;;;;4.63;2.80;;;22.80;99.90;;;;;;5008593;28;20116;-77
2022/09/07 08:35:58;;;;;;;5.40;2.83;;;22.90;99.90;;;;;;5009986;28;20033;-77
2022/09/07 08:38:24;;;;;;;3.42;2.92;;;22.90;99.90;;;;;;5023369;28;20034;-76
2022/09/07 08:41:02;;;;;;;5.75;2.55;;;23.00;99.90;;;;;;5075003;27;20903;-76
2022/09/07 08:43:56;;;;;;;7.65;2.90;;;23.00;99.90;;;;;;5090882;28;20039;-76
2022/09/07 08:46:50;;;;;;;3.78;2.78;;;23.00;99.90;;;;;;5085853;28;20514;-76
2022/09/07 08:49:22;;;;;;;5.22;2.35;;;23.10;99.90;;;;;;5094424;28;20538;-76
2022/09/07 08:51:58;;;;;;;5.78;2.10;;;23.10;99.90;;;;;;5087098;28;20416;-76
2022/09/07 08:54:24;;;;;;;2.55;2.20;;;23.10;99.90;;;;;;5084713;28;20029;-76
2022/09/07 08:56:56;;;;;;;5.43;1.90;;;23.20;99.90;;;;;;5099734;28;20046;-76
2022/09/07 08:59:25;;;;;;;2.75;1.85;;;23.30;99.90;;;;;;5099195;28;20032;-76
2022/09/07 09:01:51;;;;;;;4.30;1.80;;;23.50;99.90;;;;;;5087811;28;20028;-75
2022/09/07 09:04:25;;;;;;;6.07;2.00;;;23.50;99.90;;;;;;5086211;28;20048;-76
2022/09/07 09:07:28;;;;;;;4.85;1.90;;;23.60;99.90;;;;;;5087213;28;20036;-77
2022/09/07 09:10:14;;;;;;;5.80;1.88;;;23.60;99.90;;;;;;5086596;28;20027;-79
2022/09/07 09:13:02;;;;;;;15.02;2.10;;;23.50;99.90;;;;;;5087848;28;20028;-77
2022/09/07 09:15:46;;;;;;;5.65;1.80;;;23.50;99.90;;;;;;5087431;28;20028;-76
2022/09/07 09:18:20;;;;;;;3.08;1.60;;;23.50;99.90;;;;;;5094285;28;20047;-76
2022/09/07 09:20:52;;;;;;;2.13;1.50;;;23.50;99.90;;;;;;5092608;28;20072;-76
2022/09/07 09:23:22;;;;;;;5.68;1.40;;;23.60;99.90;;;;;;5088184;28;20499;-78
2022/09/07 09:26:03;;;;;;;3.35;1.60;;;23.80;99.90;;;;;;5084640;28;20159;-76
2022/09/07 09:28:28;;;;;;;4.85;1.70;;;24.00;99.90;;;;;;5083989;28;20024;-76
2022/09/07 09:30:54;;;;;;;6.22;1.90;;;24.20;99.90;;;;;;5088447;28;20102;-77
2022/09/07 09:33:22;;;;;;;5.35;1.80;;;24.30;99.90;;;;;;5090796;28;20036;-75
2022/09/07 09:35:50;;;;;;;8.15;1.70;;;24.40;99.90;;;;;;5092662;28;20062;-79
2022/09/07 09:38:39;;;;;;;3.25;1.83;;;24.50;99.90;;;;;;5094325;28;20086;-79
2022/09/07 09:41:10;;;;;;;4.93;1.50;;;24.60;99.90;;;;;;5081187;28;20051;-75
2022/09/07 09:43:50;;;;;;;5.00;1.75;;;24.70;99.90;;;;;;5079867;28;20086;-75
2022/09/07 09:46:32;;;;;;;5.68;1.60;;;24.80;99.90;;;;;;5095112;28;20019;-76
2022/09/07 09:49:07;;;;;;;4.47;1.23;;;24.80;99.90;;;;;;5083358;28;20374;-76
2022/09/07 09:51:40;;;;;;;4.07;1.65;;;25.00;99.90;;;;;;5077727;28;20686;-76
2022/09/07 09:54:25;;;;;;;6.82;1.85;;;25.10;99.90;;;;;;5072747;28;20713;-76
2022/09/07 09:56:51;;;;;;;5.22;1.58;;;25.10;99.90;;;;;;5080721;28;20042;-75
2022/09/07 09:59:16;;;;;;;2.03;1.50;;;25.20;99.90;;;;;;5072566;28;20032;-77
2022/09/07 10:01:43;;;;;;;3.60;1.48;;;25.20;99.60;;;;;;5066270;28;20028;-77
2022/09/07 10:04:24;;;;;;;5.00;1.38;;;25.40;99.40;;;;;;5075416;28;20024;-77
2022/09/07 10:07:16;;;;;;;2.33;1.35;;;25.40;99.10;;;;;;5076776;28;20040;-76
2022/09/07 10:09:48;;;;;;;4.35;1.40;;;25.50;99.10;;;;;;5073511;28;20057;-76
2022/09/07 10:12:31;;;;;;;1.70;1.23;;;25.60;98.90;;;;;;5073553;28;20031;-77
2022/09/07 10:14:59;;;;;;;3.97;1.63;;;25.70;98.60;;;;;;5070305;28;20058;-76
2022/09/07 10:17:32;;;;;;;6.90;1.73;;;25.90;98.60;;;;;;5076736;28;20089;-77
2022/09/07 10:20:18;;;;;;;2.47;1.50;;;25.90;98.00;;;;;;5072471;28;20039;-74
2022/09/07 10:22:50;;;;;;;3.70;1.70;;;25.90;98.00;;;;;;5075158;28;20388;-76
2022/09/07 10:25:39;;;;;;;4.68;1.63;;;26.00;97.50;;;;;;5073914;28;20024;-75
2022/09/07 10:28:14;;;;;;;4.20;1.65;;;26.10;97.50;;;;;;5073792;28;20032;-75
2022/09/07 10:31:07;;;;;;;4.00;1.50;;;26.20;97.10;;;;;;5073087;28;20538;-76
2022/09/07 10:34:00;;;;;;;2.20;1.42;;;26.30;97.00;;;;;;5067655;28;20021;-76
2022/09/07 10:36:28;;;;;;;3.53;1.50;;;26.30;96.50;;;;;;5070642;28;20040;-76
2022/09/07 10:39:05;;;;;;;2.42;1.70;;;26.30;96.40;;;;;;5063528;28;20040;-74
2022/09/07 10:41:53;;;;;;;4.90;1.67;;;26.20;96.50;;;;;;5072213;28;20035;-76
2022/09/07 10:44:34;;;;;;;3.25;1.67;;;26.30;96.30;;;;;;5071976;28;20024;-76
2022/09/07 10:47:12;;;;;;;3.67;1.50;;;26.30;95.90;;;;;;5073684;28;20105;-75
2022/09/07 10:49:45;;;;;;;3.22;1.50;;;26.50;96.00;;;;;;5081364;28;20482;-76
2022/09/07 10:52:17;;;;;;;;;;;26.50;95.80;;;;;;5071291;28;20028;-76
2022/09/07 10:54:57;;;;;;;4.20;1.70;;;26.60;95.60;;;;;;5065476;28;20653;-76
2022/09/07 10:57:35;;;;;;;5.53;1.17;;;26.70;95.40;;;;;;5075632;28;20510;-76
2022/09/07 11:00:09;;;;;;;5.07;1.65;;;26.80;94.70;;;;;;5074989;28;20087;-76
2022/09/07 11:02:50;;;;;;;2.33;1.20;;;26.90;94.30;;;;;;5079000;28;20063;-76
2022/09/07 11:05:34;;;;;;;6.32;1.35;;;27.00;94.00;;;;;;5064489;28;20369;-76
2022/09/07 11:08:15;;;;;;;3.13;1.30;;;27.10;94.20;;;;;;5077609;28;20488;-76
2022/09/07 11:10:55;;;;;;;4.95;1.50;;;27.20;93.70;;;;;;5075907;28;20035;-76
2022/09/07 11:13:25;;;;;;;1.63;1.40;;;27.20;93.20;;;;;;5074920;28;20019;-76
2022/09/07 11:15:59;;;;;;;4.53;1.30;;;27.10;93.30;;;;;;5080228;28;20060;-76
2022/09/07 11:18:48;;;;;;;2.50;1.42;;;27.20;93.10;;;;;;5067297;28;20208;-76
2022/09/07 11:21:17;;;;;;;4.72;1.20;;;27.30;92.90;;;;;;5076198;28;20039;-76
2022/09/07 11:24:08;;;;;;;4.97;1.10;;;27.40;92.70;;;;;;5071277;28;20035;-76
2022/09/07 11:26:44;;;;;;;2.75;0.93;;;27.50;92.00;;;;;;5080722;28;20024;-76
2022/09/07 11:29:20;;;;;;;3.90;1.33;;;27.50;92.30;;;;;;5077443;28;20028;-76
2022/09/07 11:32:03;;;;;;;3.40;1.20;;;27.60;92.30;;;;;;5066737;28;20113;-75
2022/09/07 11:34:51;;;;;;;1.30;1.15;;;27.70;91.80;;;;;;5075639;28;20028;-76
2022/09/07 11:37:33;;;;;;;2.47;1.02;;;27.80;91.70;;;;;;5074066;28;20032;-75
2022/09/07 11:40:21;;;;;;;1.13;0.98;;;27.90;91.20;;;;;;5069662;28;20056;-76
2022/09/07 11:42:58;;;;;;;3.67;0.90;;;27.90;91.10;;;;;;5069520;28;20028;-76
2022/09/07 11:45:42;;;;;;;1.58;1.10;;;27.90;90.70;;;;;;5065437;28;20499;-76
2022/09/07 11:48:32;;;;;;;4.78;1.30;;;28.00;90.50;;;;;;5075658;28;20031;-75
2022/09/07 11:51:06;;;;;;;3.30;1.30;;;28.00;90.50;;;;;;5074941;28;20677;-76
2022/09/07 11:53:38;;;;;;;4.10;1.13;;;28.00;90.20;;;;;;5066226;28;20024;-76
2022/09/07 11:56:10;;;;;;;1.77;1.08;;;28.10;90.10;;;;;;5071675;28;20023;-76
2022/09/07 11:58:43;;;;;;;4.03;1.40;;;28.20;89.40;;;;;;5070492;28;20063;-76
2022/09/07 12:01:46;;;;;;;1.15;0.85;;;28.20;89.20;;;;;;5065747;28;20404;-76
2022/09/07 12:04:34;;;;;;;3.20;1.00;;;28.30;89.60;;;;;;5070442;28;20069;-76
2022/09/07 12:08:01;;;;;;;2.92;1.00;;;28.30;86.40;;;;;;5065002;28;20041;-79
2022/09/07 12:10:33;;;;;;;8.02;1.38;;;28.40;86.00;;;;;;5046696;28;20035;-78
2022/09/07 12:13:05;;;;;;;3.75;1.10;;;28.40;84.70;;;;;;5072044;28;20495;-78
2022/09/07 12:16:01;;;;;;;3.85;0.95;;;28.40;84.90;;;;;;5074548;28;20024;-80
2022/09/07 12:19:04;;;;;;;2.13;1.02;;;28.50;84.20;;;;;;5065893;28;20028;-79
2022/09/07 12:21:39;;;;;;;4.35;0.88;;;28.30;84.80;;;;;;4371031;28;10021672;-78
2022/09/07 12:24:04;;;;;;;2.58;1.00;;;27.90;85.80;;;;;;5088856;28;20126;-85
2022/09/07 12:26:33;;;;;;;1.23;0.90;;;27.80;86.60;;;;;;5085677;28;20032;-76
2022/09/07 12:28:58;;;;;;;3.65;1.10;;;27.80;86.50;;;;;;5077560;28;20481;-74
2022/09/07 12:31:49;;;;;;;3.13;0.82;;;27.90;86.70;;;;;;5077942;28;20024;-79
2022/09/07 12:34:32;;;;;;;2.65;1.00;;;28.20;86.70;;;;;;5078730;28;20289;-80
2022/09/07 12:37:21;;;;;;;3.42;1.05;;;28.40;84.90;;;;;;5098480;28;20031;-82
2022/09/07 12:39:47;;;;;;;2.28;0.90;;;28.60;83.70;;;;;;5076955;28;20044;-79
2022/09/07 12:42:25;;;;;;;4.28;0.95;;;28.80;83.20;;;;;;5080484;28;20064;-77
2022/09/07 12:45:27;;;;;;;3.92;0.95;;;29.10;81.30;;;;;;5090889;28;20032;-77
2022/09/07 12:47:57;;;;;;;2.05;0.93;;;29.20;80.90;;;;;;5084675;28;20062;-79
2022/09/07 12:50:28;;;;;;;2.05;1.00;;;29.40;79.60;;;;;;5084273;28;20051;-75
2022/09/07 12:53:11;;;;;;;1.90;0.88;;;29.60;78.20;;;;;;5077183;28;20529;-76
2022/09/07 12:55:54;;;;;;;3.17;0.90;;;29.60;76.50;;;;;;5112230;28;23123;-77
2022/09/07 12:58:43;;;;;;;3.85;0.90;;;29.70;77.70;;;;;;5108647;28;20030;-77
2022/09/07 13:01:24;;;;;;;2.25;0.90;;;29.70;76.20;;;;;;5109206;28;20464;-75
2022/09/07 13:04:08;;;;;;;1.55;0.90;;;29.80;75.00;;;;;;5112199;28;20042;-78
2022/09/07 13:06:57;;;;;;;2.65;0.90;;;29.40;74.90;;;;;;5105187;27;20495;-78
2022/09/07 13:09:36;;;;;;;3.75;0.80;;;29.10;75.70;;;;;;5110331;27;20046;-75
2022/09/07 13:12:37;;;;;;;1.45;0.77;;;29.00;74.30;;;;;;5102651;27;20027;-74
2022/09/07 13:15:04;;;;;;;4.50;1.00;;;29.10;73.80;;;;;;5107226;28;20029;-73